Time;durP1;ratioP1;P1;durP2;ratioP2;P2;SDS_P1;SDS_P2;PMS_P1;PMS_P2;Temp;Humidity;BMP_temperature;BMP_pressure;BME280_temperature;BME280_humidity;BME280_pressure;Samples;Min_cycle;Max_cycle;Signal;HPM_P1;HPM_P2
2024/04/24 00:02:18;;;;;;;21.60;17.90;;;;;;;4.41;61.85;99700.60;103204;1259;107452;-66
2024/04/24 00:04:46;;;;;;;23.30;17.90;;;;;;;4.43;61.97;99700.05;103196;1259;138663;-66
2024/04/24 00:07:14;;;;;;;23.70;17.70;;;;;;;4.46;61.93;99696.02;103440;1257;107920;-67
2024/04/24 00:09:41;;;;;;;25.60;19.20;;;;;;;4.48;62.13;99696.52;103164;1256;140356;-67
2024/04/24 00:12:09;;;;;;;22.30;17.40;;;;;;;4.51;62.04;99697.89;103264;1259;112767;-66
2024/04/24 00:14:36;;;;;;;21.80;16.70;;;;;;;4.52;61.98;99692.16;103248;1259;108632;-67
2024/04/24 00:17:03;;;;;;;23.50;17.80;;;;;;;4.54;62.02;99685.76;103231;1257;138800;-66
2024/04/24 00:19:30;;;;;;;21.40;17.60;;;;;;;4.57;62.07;99681.23;103258;1260;107383;-66
2024/04/24 00:21:57;;;;;;;22.90;16.50;;;;;;;4.58;61.98;99670.38;103435;1257;139764;-66
2024/04/24 00:24:24;;;;;;;21.80;17.10;;;;;;;4.58;61.95;99670.55;103231;1259;112082;-67
2024/04/24 00:26:52;;;;;;;19.10;16.20;;;;;;;4.59;61.89;99662.42;103209;1259;107799;-66
2024/04/24 00:29:19;;;;;;;21.10;16.10;;;;;;;4.60;62.11;99656.73;102533;1257;1003305;-66
2024/04/24 00:31:46;;;;;;;27.90;20.50;;;;;;;4.61;61.93;99654.64;103501;1257;108080;-67
2024/04/24 00:34:13;;;;;;;25.40;17.70;;;;;;;4.61;62.04;99651.02;102566;1263;1002993;-66
2024/04/24 00:36:40;;;;;;;21.70;16.40;;;;;;;4.59;61.77;99648.99;103238;1257;112828;-66
2024/04/24 00:39:07;;;;;;;21.00;16.20;;;;;;;4.57;61.91;99645.77;103208;1260;107778;-66
2024/04/24 00:41:34;;;;;;;23.10;17.30;;;;;;;4.55;62.08;99646.67;103181;1259;138556;-66
2024/04/24 00:44:01;;;;;;;21.40;16.90;;;;;;;4.54;61.92;99646.17;102509;1259;1003559;-67
2024/04/24 00:46:32;;;;;;;23.20;17.60;;;;;;;4.52;62.05;99643.11;103136;1257;140298;-66
2024/04/24 00:49:00;;;;;;;24.80;17.90;;;;;;;4.49;62.11;99641.60;103418;1262;113383;-67
2024/04/24 00:51:30;;;;;;;23.80;16.60;;;;;;;4.48;62.12;99640.58;103283;1260;107313;-67
2024/04/24 00:53:57;;;;;;;23.10;17.10;;;;;;;4.47;62.21;99641.80;102565;1260;1005651;-67
2024/04/24 00:56:24;;;;;;;24.30;17.10;;;;;;;4.46;62.27;99641.11;103246;1262;107904;-67
2024/04/24 00:58:52;;;;;;;22.60;18.50;;;;;;;4.46;62.18;99641.64;103174;1260;138667;-67
2024/04/24 01:01:21;;;;;;;23.60;17.80;;;;;;;4.44;62.18;99637.88;103271;1259;112608;-67
2024/04/24 01:03:49;;;;;;;22.10;17.50;;;;;;;4.42;62.34;99629.14;103103;1260;139214;-66
2024/04/24 01:06:16;;;;;;;21.60;17.30;;;;;;;4.41;62.36;99622.80;103302;1259;99145;-66
2024/04/24 01:08:43;;;;;;;25.30;17.90;;;;;;;4.41;62.31;99622.81;103311;1258;107617;-67
2024/04/24 01:11:10;;;;;;;24.70;18.90;;;;;;;4.37;62.27;99618.05;103113;1257;139954;-66
2024/04/24 01:13:37;;;;;;;20.50;17.40;;;;;;;4.35;62.44;99610.00;103265;1258;113504;-66
2024/04/24 01:16:09;;;;;;;24.30;18.20;;;;;;;4.35;62.55;99607.94;103097;1264;138727;-66
2024/04/24 01:18:40;;;;;;;24.50;18.90;;;;;;;4.34;62.58;99602.98;103292;1257;99100;-68
2024/04/24 01:21:09;;;;;;;22.20;18.30;;;;;;;4.30;62.48;99597.33;102253;1263;1002892;-65
2024/04/24 01:23:43;;;;;;;24.40;18.10;;;;;;;4.26;62.61;99592.77;103267;1260;138672;-66
2024/04/24 01:26:14;;;;;;;22.30;18.40;;;;;;;4.23;62.84;99590.58;103189;1256;112676;-67
2024/04/24 01:28:41;;;;;;;25.10;19.00;;;;;;;4.23;62.71;99585.40;103144;1258;138563;-66
2024/04/24 01:31:08;;;;;;;24.70;17.30;;;;;;;4.22;63.08;99582.84;103286;1259;99213;-66
2024/04/24 01:33:35;;;;;;;21.10;17.40;;;;;;;4.22;62.80;99579.23;103060;1259;138697;-65
2024/04/24 01:36:03;;;;;;;23.70;17.80;;;;;;;4.18;62.81;99579.65;103319;1257;99340;-67
2024/04/24 01:38:30;;;;;;;21.20;17.70;;;;;;;4.15;63.08;99575.94;103234;1260;112599;-66
2024/04/24 01:40:58;;;;;;;21.00;16.90;;;;;;;4.11;62.93;99567.20;103060;1257;138597;-66
2024/04/24 01:43:25;;;;;;;22.40;17.20;;;;;;;4.07;62.72;99563.14;103273;1257;99690;-66
2024/04/24 01:45:52;;;;;;;23.80;16.90;;;;;;;4.04;62.96;99558.56;103184;1257;138526;-67
2024/04/24 01:48:19;;;;;;;22.00;17.30;;;;;;;4.03;63.01;99555.48;103237;1257;99264;-68
2024/04/24 01:50:46;;;;;;;22.30;17.30;;;;;;;4.00;63.02;99551.59;103340;1257;112721;-66
2024/04/24 01:53:13;;;;;;;23.40;17.90;;;;;;;3.96;63.14;99548.72;103106;1259;138518;-67
2024/04/24 01:55:40;;;;;;;21.60;16.70;;;;;;;3.89;63.09;99547.95;103252;1257;99310;-67
2024/04/24 01:58:08;;;;;;;25.60;18.10;;;;;;;3.87;63.48;99545.08;103368;1257;138595;-66
2024/04/24 02:00:34;;;;;;;22.60;16.70;;;;;;;3.84;63.17;99541.00;103235;1257;99049;-66
2024/04/24 02:03:02;;;;;;;25.50;17.60;;;;;;;3.81;63.42;99544.85;103167;1258;112773;-66
2024/04/24 02:05:29;;;;;;;20.40;16.70;;;;;;;3.78;63.54;99544.71;103079;1257;138705;-66
2024/04/24 02:07:56;;;;;;;23.00;17.90;;;;;;;3.74;63.49;99538.74;103061;1260;1002250;-67
2024/04/24 02:10:23;;;;;;;20.90;17.00;;;;;;;3.72;63.75;99537.07;103093;1257;138701;-66
2024/04/24 02:12:50;;;;;;;21.20;17.10;;;;;;;3.70;64.00;99532.30;103258;1260;99185;-66
2024/04/24 02:15:17;;;;;;;24.80;17.00;;;;;;;3.68;64.10;99527.16;103192;1261;112386;-66
2024/04/24 02:17:44;;;;;;;21.80;17.50;;;;;;;3.67;64.22;99524.42;103096;1256;138369;-66
2024/04/24 02:20:12;;;;;;;22.20;17.40;;;;;;;3.63;64.17;99523.27;103177;1260;176437;-66
2024/04/24 02:22:39;;;;;;;26.30;17.60;;;;;;;3.59;64.19;99520.06;103067;1257;139337;-66
2024/04/24 02:27:52;;;;;;;21.90;17.40;;;;;;;3.54;64.39;99512.07;103083;1260;140296;-67
2024/04/24 02:30:18;;;;;;;22.60;17.40;;;;;;;3.52;64.57;99511.58;103151;1259;107442;-67
2024/04/24 02:32:46;;;;;;;22.90;16.50;;;;;;;3.51;64.67;99511.59;103304;1260;99040;-66
2024/04/24 02:35:13;;;;;;;21.50;17.50;;;;;;;3.51;64.73;99506.27;103183;1260;142158;-68
2024/04/24 02:37:40;;;;;;;20.10;16.50;;;;;;;3.50;64.75;99502.16;103347;1257;99355;-66
2024/04/24 02:40:09;;;;;;;19.40;16.40;;;;;;;3.50;64.89;99500.62;103099;1258;138654;-68
2024/04/24 02:42:37;;;;;;;21.20;17.20;;;;;;;3.49;64.88;99496.84;103391;1257;107949;-67
2024/04/24 02:45:04;;;;;;;20.40;16.50;;;;;;;3.47;64.98;99490.19;103399;1260;99369;-67
2024/04/24 02:47:31;;;;;;;19.70;15.70;;;;;;;3.48;64.98;99489.82;103130;1259;138749;-67
2024/04/24 02:49:58;;;;;;;21.50;16.50;;;;;;;3.47;64.91;99485.21;103275;1257;99030;-67
2024/04/24 02:52:25;;;;;;;20.20;16.30;;;;;;;3.45;65.01;99478.19;103122;1257;138445;-67
2024/04/24 02:54:52;;;;;;;23.30;17.10;;;;;;;3.44;65.06;99477.88;103178;1257;108128;-67
2024/04/24 02:57:19;;;;;;;22.50;17.00;;;;;;;3.43;65.10;99471.19;103241;1260;99603;-67
2024/04/24 02:59:46;;;;;;;21.70;16.80;;;;;;;3.42;65.40;99469.83;103329;1261;138334;-67
2024/04/24 03:02:13;;;;;;;22.50;16.80;;;;;;;3.41;65.41;99470.35;103481;1257;99100;-67
2024/04/24 03:04:40;;;;;;;20.70;16.00;;;;;;;3.39;65.36;99470.36;102462;1258;1003377;-67
2024/04/24 03:07:08;;;;;;;24.50;17.10;;;;;;;3.37;65.41;99466.96;103227;1257;108487;-68
2024/04/24 03:09:35;;;;;;;20.40;16.00;;;;;;;3.36;65.39;99463.20;103202;1260;138713;-68
2024/04/24 03:12:02;;;;;;;20.70;16.20;;;;;;;3.36;65.70;99455.80;103352;1257;106750;-67
2024/04/24 03:14:29;;;;;;;20.30;16.30;;;;;;;3.37;65.44;99450.29;103299;1257;99251;-68
2024/04/24 03:16:56;;;;;;;21.30;16.80;;;;;;;3.38;65.45;99444.09;103094;1258;140017;-68
2024/04/24 03:19:23;;;;;;;22.50;15.90;;;;;;;3.38;65.59;99438.41;103241;1260;107861;-68
2024/04/24 03:21:50;;;;;;;21.30;16.40;;;;;;;3.36;65.71;99437.08;103294;1258;139390;-68
2024/04/24 03:24:17;;;;;;;21.70;16.10;;;;;;;3.35;65.66;99430.38;103449;1257;107748;-68
2024/04/24 03:26:44;;;;;;;20.30;16.20;;;;;;;3.33;65.69;99430.41;103354;1260;100776;-67
2024/04/24 03:29:11;;;;;;;20.90;15.40;;;;;;;3.32;65.91;99428.91;103354;1257;138888;-68
2024/04/24 03:31:38;;;;;;;20.90;15.90;;;;;;;3.32;65.96;99426.50;103534;1257;107070;-68
2024/04/24 03:34:05;;;;;;;24.80;16.30;;;;;;;3.30;65.98;99424.48;103256;1260;138724;-68
2024/04/24 03:36:32;;;;;;;19.10;15.60;;;;;;;3.30;66.03;99422.58;103213;1260;109230;-68
2024/04/24 03:38:59;;;;;;;19.20;15.90;;;;;;;3.29;66.14;99412.80;102474;1256;1003530;-67
2024/04/24 03:41:26;;;;;;;21.10;16.00;;;;;;;3.30;66.14;99415.02;103226;1257;138869;-67
2024/04/24 03:43:53;;;;;;;20.40;16.40;;;;;;;3.31;66.16;99406.23;103223;1257;107082;-67
2024/04/24 03:46:20;;;;;;;23.20;16.10;;;;;;;3.32;66.19;99408.10;103110;1257;139633;-68
2024/04/24 03:48:47;;;;;;;19.70;14.90;;;;;;;3.35;66.43;99398.96;103190;1257;107329;-68
2024/04/24 03:51:14;;;;;;;22.50;16.20;;;;;;;3.37;66.35;99397.88;103222;1260;99160;-68
2024/04/24 03:53:41;;;;;;;19.10;15.90;;;;;;;3.38;66.26;99396.31;103163;1257;139478;-67
2024/04/24 03:56:08;;;;;;;19.50;15.10;;;;;;;3.40;66.49;99397.66;103219;1256;106785;-68
2024/04/24 03:58:35;;;;;;;18.70;15.50;;;;;;;3.41;66.52;99392.33;103737;1257;138519;-68
2024/04/24 04:01:03;;;;;;;20.90;15.60;;;;;;;3.41;66.43;99391.30;102537;1259;1003009;-68
2024/04/24 04:03:30;;;;;;;21.90;14.90;;;;;;;3.41;66.55;99387.52;103267;1257;99183;-68
2024/04/24 04:05:57;;;;;;;19.10;15.20;;;;;;;3.42;66.52;99384.92;103190;1260;138739;-68
2024/04/24 04:08:24;;;;;;;20.20;15.40;;;;;;;3.43;66.53;99385.42;103354;1258;106562;-67
2024/04/24 04:10:51;;;;;;;19.10;15.20;;;;;;;3.45;66.71;99378.70;103801;1256;139517;-67
2024/04/24 04:13:19;;;;;;;21.60;15.50;;;;;;;3.47;66.65;99374.69;103131;1257;108599;-68
2024/04/24 04:15:45;;;;;;;24.50;15.50;;;;;;;3.51;66.74;99375.66;103123;1260;138767;-69
2024/04/24 04:18:12;;;;;;;20.30;15.40;;;;;;;3.54;66.75;99372.15;103393;1259;112975;-68
2024/04/24 04:20:39;;;;;;;18.20;14.60;;;;;;;3.58;66.81;99372.77;103188;1260;108074;-68
2024/04/24 04:23:07;;;;;;;20.20;14.90;;;;;;;3.63;66.71;99366.86;104433;1257;138638;-68
2024/04/24 04:25:34;;;;;;;20.70;14.80;;;;;;;3.64;66.63;99359.45;103411;1260;109579;-68
2024/04/24 04:28:01;;;;;;;20.30;14.90;;;;;;;3.69;66.64;99365.88;102522;1259;1002922;-66
2024/04/24 04:30:28;;;;;;;19.50;14.10;;;;;;;3.73;66.76;99361.67;103246;1258;114795;-68
2024/04/24 04:32:55;;;;;;;17.40;14.40;;;;;;;3.78;66.64;99361.09;103220;1257;108119;-69
2024/04/24 04:35:22;;;;;;;20.00;14.20;;;;;;;3.81;66.50;99357.59;103253;1258;138636;-68
2024/04/24 04:37:49;;;;;;;20.60;14.40;;;;;;;3.84;66.66;99350.98;103100;1257;107302;-67
2024/04/24 04:40:16;;;;;;;21.00;14.70;;;;;;;3.92;66.66;99348.42;103141;1257;138705;-68
2024/04/24 04:42:44;;;;;;;17.70;14.10;;;;;;;3.96;66.62;99344.38;103211;1257;111499;-68
2024/04/24 04:45:11;;;;;;;17.30;13.90;;;;;;;4.00;66.56;99337.09;103130;1259;107725;-68
2024/04/24 04:47:38;;;;;;;16.60;13.50;;;;;;;4.02;66.57;99334.98;103264;1259;138901;-68
2024/04/24 04:50:07;;;;;;;19.30;14.10;;;;;;;4.05;66.40;99336.30;103265;1256;107010;-68
2024/04/24 04:52:34;;;;;;;18.80;14.50;;;;;;;4.08;66.42;99338.46;103080;1263;138768;-66
2024/04/24 04:55:02;;;;;;;17.30;13.90;;;;;;;4.11;66.52;99334.09;103404;1257;113582;-68
2024/04/24 04:57:29;;;;;;;19.10;14.00;;;;;;;4.13;66.40;99333.38;103252;1256;107684;-68
2024/04/24 04:59:56;;;;;;;17.60;13.00;;;;;;;4.13;66.46;99331.14;103149;1256;138376;-68
2024/04/24 05:02:23;;;;;;;21.90;14.50;;;;;;;4.14;66.47;99328.71;102450;1257;1003745;-68
2024/04/24 05:04:50;;;;;;;20.00;14.30;;;;;;;4.18;66.51;99325.86;103077;1259;138812;-67
2024/04/24 05:07:17;;;;;;;16.90;13.50;;;;;;;4.21;66.48;99322.71;103105;1259;113460;-66
2024/04/24 05:09:44;;;;;;;17.80;13.80;;;;;;;4.22;66.61;99321.14;103106;1256;139712;-67
2024/04/24 05:12:11;;;;;;;17.50;13.00;;;;;;;4.24;66.38;99317.64;103246;1257;99298;-67
2024/04/24 05:14:38;;;;;;;17.50;13.40;;;;;;;4.27;66.47;99311.91;103125;1260;108300;-68
2024/04/24 05:17:08;;;;;;;19.60;14.10;;;;;;;4.31;66.58;99308.58;103047;1257;139137;-68
2024/04/24 05:19:35;;;;;;;17.80;13.60;;;;;;;4.35;66.32;99309.87;103390;1256;111841;-68
2024/04/24 05:22:02;;;;;;;26.50;13.80;;;;;;;4.38;66.37;99304.63;102994;1259;139991;-68
2024/04/24 05:24:29;;;;;;;18.60;13.60;;;;;;;4.43;66.27;99295.39;103224;1259;99168;-67
2024/04/24 05:29:40;;;;;;;19.20;14.20;;;;;;;4.48;66.20;99289.41;103070;1256;138690;-68
2024/04/24 05:32:07;;;;;;;17.50;13.20;;;;;;;4.49;66.19;99284.92;103370;1257;112190;-69
2024/04/24 05:34:34;;;;;;;17.70;13.20;;;;;;;4.52;66.20;99282.29;102902;1259;138966;-70
2024/04/24 05:37:01;;;;;;;17.30;12.70;;;;;;;4.56;66.09;99279.26;103109;1256;99765;-68
2024/04/24 05:39:27;;;;;;;17.30;13.20;;;;;;;4.60;66.07;99275.89;103197;1257;107231;-67
2024/04/24 05:41:54;;;;;;;17.10;13.20;;;;;;;4.62;65.98;99270.84;103150;1257;138475;-68
2024/04/24 05:44:23;;;;;;;18.70;13.10;;;;;;;4.60;65.76;99269.34;103244;1257;113681;-68
2024/04/24 05:46:50;;;;;;;17.50;13.00;;;;;;;4.59;65.81;99270.73;102989;1259;138524;-68
2024/04/24 05:49:17;;;;;;;19.50;13.20;;;;;;;4.58;65.89;99266.13;103158;1255;100815;-70
2024/04/24 05:51:44;;;;;;;20.00;13.40;;;;;;;4.58;65.73;99263.72;103064;1257;138660;-70
2024/04/24 05:54:11;;;;;;;21.30;13.40;;;;;;;4.58;65.66;99262.16;103025;1256;99193;-69
2024/04/24 05:56:37;;;;;;;22.10;13.20;;;;;;;4.59;65.95;99255.42;103141;1256;111510;-70
2024/04/24 05:59:04;;;;;;;15.30;12.20;;;;;;;4.64;65.80;99255.81;102868;1260;139594;-68
2024/04/24 06:01:31;;;;;;;22.40;12.70;;;;;;;4.66;65.89;99253.70;102355;1259;1003520;-69
2024/04/24 06:03:58;;;;;;;20.90;12.80;;;;;;;4.72;66.41;99253.73;103117;1259;139949;-70
2024/04/24 06:06:24;;;;;;;18.20;13.40;;;;;;;4.76;66.10;99249.67;103044;1257;99243;-68
2024/04/24 06:08:51;;;;;;;17.80;12.90;;;;;;;4.80;65.99;99245.25;103016;1257;112823;-68
2024/04/24 06:11:18;;;;;;;19.80;13.90;;;;;;;4.85;66.00;99248.59;103018;1259;138772;-68
2024/04/24 06:13:45;;;;;;;17.20;12.30;;;;;;;4.91;65.78;99246.89;103383;1259;99071;-69
2024/04/24 06:16:13;;;;;;;17.00;11.90;;;;;;;4.99;65.68;99246.34;103117;1256;138630;-68
2024/04/24 06:18:40;;;;;;;15.20;11.30;;;;;;;5.04;65.58;99243.65;103689;1256;99169;-59
2024/04/24 06:21:08;;;;;;;18.80;12.50;;;;;;;5.11;66.19;99240.17;103209;1256;111862;-67
2024/04/24 06:23:35;;;;;;;17.40;12.50;;;;;;;5.18;65.50;99237.73;103040;1259;138527;-69
2024/04/24 06:26:02;;;;;;;14.80;11.70;;;;;;;5.21;65.20;99233.55;104069;1256;98278;-68
2024/04/24 06:28:29;;;;;;;16.80;12.30;;;;;;;5.26;65.05;99230.48;103068;1259;138478;-67
2024/04/24 06:30:56;;;;;;;16.90;12.70;;;;;;;5.29;65.08;99232.30;103828;1255;99231;-69
2024/04/24 06:33:23;;;;;;;15.20;11.70;;;;;;;5.31;64.98;99227.41;103247;1259;111915;-67
2024/04/24 06:35:50;;;;;;;21.30;12.40;;;;;;;5.34;64.79;99230.77;103137;1256;138310;-69
2024/04/24 06:38:19;;;;;;;16.50;12.00;;;;;;;5.40;64.88;99228.21;103169;1256;99184;-66
2024/04/24 06:40:46;;;;;;;18.20;12.20;;;;;;;5.46;64.93;99223.02;103219;1256;138342;-67
2024/04/24 06:43:13;;;;;;;20.80;11.90;;;;;;;5.53;64.86;99220.92;103109;1256;99179;-67
2024/04/24 06:45:40;;;;;;;17.90;12.40;;;;;;;5.61;64.95;99216.61;103080;1256;138542;-67
2024/04/24 06:48:08;;;;;;;15.60;12.40;;;;;;;5.65;64.72;99212.48;103312;1256;107975;-68
2024/04/24 06:50:35;;;;;;;15.50;12.00;;;;;;;5.71;64.65;99206.96;103672;1256;99171;-67
2024/04/24 06:53:02;;;;;;;20.30;12.00;;;;;;;5.77;64.71;99204.06;102913;1257;138436;-67
2024/04/24 06:55:30;;;;;;;17.90;11.80;;;;;;;5.81;64.48;99200.64;102685;1256;1003123;-67
2024/04/24 06:57:57;;;;;;;18.50;11.90;;;;;;;5.83;64.12;99197.81;102974;1256;138916;-68
2024/04/24 07:00:29;;;;;;;16.00;11.70;;;;;;;5.88;64.52;99190.77;103105;1256;107351;-68
2024/04/24 07:02:56;;;;;;;15.80;11.70;;;;;;;5.96;64.61;99187.31;103792;1256;99064;-68
2024/04/24 07:05:24;;;;;;;17.30;12.50;;;;;;;6.02;64.46;99181.74;103201;1256;139260;-68
2024/04/24 07:07:51;;;;;;;16.90;11.80;;;;;;;6.11;64.40;99177.00;103296;1257;99148;-68
2024/04/24 07:10:18;;;;;;;16.60;11.80;;;;;;;6.20;64.45;99172.05;102989;1256;139212;-68
2024/04/24 07:12:44;;;;;;;14.60;11.60;;;;;;;6.30;64.39;99175.36;103360;1257;107650;-66
2024/04/24 07:15:15;;;;;;;14.80;11.10;;;;;;;6.39;64.17;99176.45;102358;1260;1003297;-67
2024/04/24 07:17:42;;;;;;;20.00;12.30;;;;;;;6.45;64.04;99173.84;103586;1257;138759;-67
2024/04/24 07:20:10;;;;;;;14.00;11.80;;;;;;;6.51;64.08;99172.08;103501;1259;99246;-68
2024/04/24 07:22:38;;;;;;;16.00;11.20;;;;;;;6.58;64.01;99161.48;103242;1259;140071;-68
2024/04/24 07:25:06;;;;;;;13.90;11.00;;;;;;;6.74;64.05;99161.30;103375;1262;108684;-67
2024/04/24 07:27:33;;;;;;;12.90;10.40;;;;;;;6.93;63.97;99159.42;103251;1258;99169;-68
2024/04/24 07:30:02;;;;;;;14.10;10.50;;;;;;;7.11;63.69;99154.33;103199;1257;107841;-67
2024/04/24 07:32:29;;;;;;;11.60;10.40;;;;;;;7.26;63.65;99147.71;103159;1259;99190;-67
2024/04/24 07:34:56;;;;;;;13.70;10.30;;;;;;;7.46;63.21;99142.13;103143;1256;138873;-66
2024/04/24 07:37:24;;;;;;;16.40;10.00;;;;;;;7.66;63.03;99139.48;103136;1257;108271;-66
2024/04/24 07:39:51;;;;;;;13.00;10.00;;;;;;;7.80;62.75;99133.57;102919;1256;138836;-67
2024/04/24 07:42:18;;;;;;;12.50;9.60;;;;;;;8.01;62.44;99128.61;103150;1256;108460;-65
2024/04/24 07:44:45;;;;;;;16.40;10.10;;;;;;;8.24;62.26;99123.00;103086;1257;99167;-66
2024/04/24 07:47:12;;;;;;;12.20;9.60;;;;;;;8.60;62.07;99115.67;103434;1257;138941;-66
2024/04/24 07:49:40;;;;;;;15.30;9.30;;;;;;;8.96;61.55;99110.83;103298;1257;107269;-66
2024/04/24 07:52:07;;;;;;;12.00;9.80;;;;;;;9.39;61.16;99104.73;103135;1256;138510;-65
2024/04/24 07:54:35;;;;;;;12.30;9.10;;;;;;;10.03;60.55;99103.13;103322;1259;107933;-66
2024/04/24 07:57:02;;;;;;;11.10;8.90;;;;;;;10.65;59.50;99096.60;103228;1256;99174;-66
2024/04/24 07:59:29;;;;;;;10.10;8.50;;;;;;;11.17;58.72;99094.80;103049;1256;138042;-66
2024/04/24 08:01:57;;;;;;;13.50;11.40;;;;;;;11.57;57.66;99089.29;103235;1256;107257;-65
2024/04/24 08:04:24;;;;;;;12.30;9.10;;;;;;;12.08;57.06;99088.08;103287;1259;140149;-66
2024/04/24 08:06:51;;;;;;;9.70;7.90;;;;;;;12.67;56.08;99079.20;103252;1256;108173;-66
2024/04/24 08:09:18;;;;;;;9.40;8.30;;;;;;;13.14;54.70;99080.56;103270;1256;99244;-67
2024/04/24 08:11:46;;;;;;;13.60;8.60;;;;;;;13.39;54.20;99078.01;103080;1255;137847;-66
2024/04/24 08:14:14;;;;;;;9.90;8.40;;;;;;;13.43;53.02;99081.63;103137;1259;107677;-66
2024/04/24 08:16:41;;;;;;;12.30;8.20;;;;;;;13.27;53.14;99082.57;103210;1256;138092;-68
2024/04/24 08:19:08;;;;;;;12.70;8.70;;;;;;;13.13;52.43;99079.09;103232;1256;107765;-67
2024/04/24 08:21:36;;;;;;;11.70;8.60;;;;;;;12.90;52.32;99084.45;103225;1256;99043;-68
2024/04/24 08:24:03;;;;;;;9.50;8.20;;;;;;;12.70;52.63;99081.48;103188;1256;113116;-67
2024/04/24 08:26:30;;;;;;;11.70;8.40;;;;;;;12.58;53.09;99078.17;103107;1259;107940;-67
2024/04/24 08:28:57;;;;;;;9.90;8.80;;;;;;;12.52;53.21;99078.52;103095;1256;136907;-67
2024/04/24 08:31:24;;;;;;;11.00;8.50;;;;;;;12.44;52.95;99075.55;103110;1255;107766;-67
2024/04/24 08:33:51;;;;;;;9.50;8.20;;;;;;;12.32;52.85;99070.83;103086;1259;138160;-66
2024/04/24 08:36:18;;;;;;;10.00;8.50;;;;;;;12.22;53.12;99066.55;103346;1256;114218;-67
2024/04/24 08:38:45;;;;;;;9.50;8.30;;;;;;;12.13;52.97;99062.50;103209;1256;108206;-67
2024/04/24 08:41:13;;;;;;;13.50;8.80;;;;;;;12.01;52.79;99061.14;103148;1256;137916;-67
2024/04/24 08:43:41;;;;;;;13.30;9.00;;;;;;;11.92;52.86;99060.73;103417;1256;108155;-67
2024/04/24 08:46:10;;;;;;;9.90;8.90;;;;;;;11.90;53.01;99065.73;103135;1256;138256;-66
2024/04/24 08:48:39;;;;;;;12.30;8.30;;;;;;;11.93;53.26;99057.39;103338;1258;111660;-67
2024/04/24 08:51:07;;;;;;;10.10;8.40;;;;;;;12.00;53.23;99055.44;103301;1256;107241;-67
2024/04/24 08:53:36;;;;;;;9.60;8.30;;;;;;;12.18;53.40;99052.27;103251;1256;138131;-67
2024/04/24 08:56:08;;;;;;;11.80;8.80;;;;;;;12.39;52.95;99043.77;103168;1256;108186;-67
2024/04/24 08:58:38;;;;;;;10.40;7.80;;;;;;;12.52;52.59;99041.25;103501;1256;138308;-73
2024/04/24 09:01:09;;;;;;;10.20;8.00;;;;;;;12.73;52.41;99037.02;102901;1262;112491;-71
2024/04/24 09:03:40;;;;;;;9.20;8.10;;;;;;;12.97;52.28;99032.04;103133;1257;107708;-73
2024/04/24 09:06:10;;;;;;;10.00;8.00;;;;;;;13.33;52.23;99029.16;103103;1256;99244;-71
2024/04/24 09:08:38;;;;;;;9.80;8.10;;;;;;;13.71;51.68;99024.95;103108;1256;107347;-71
2024/04/24 09:11:06;;;;;;;9.20;7.30;;;;;;;14.21;51.15;99019.09;103036;1259;137955;-71
2024/04/24 09:13:35;;;;;;;10.30;8.00;;;;;;;14.75;50.60;99015.48;103154;1259;112144;-71
2024/04/24 09:16:04;;;;;;;11.60;7.50;;;;;;;15.53;50.28;99003.64;102999;1259;138134;-71
2024/04/24 09:18:31;;;;;;;10.80;7.10;;;;;;;16.66;49.75;98999.55;103058;1257;100095;-71
2024/04/24 09:20:59;;;;;;;14.20;7.20;;;;;;;17.73;48.46;98996.02;102984;1259;110890;-71
2024/04/24 09:23:26;;;;;;;10.00;7.00;;;;;;;18.51;46.62;98989.39;102977;1256;138002;-71
2024/04/24 09:25:53;;;;;;;10.50;7.70;;;;;;;18.97;45.50;98984.94;103103;1259;112594;-71
2024/04/24 09:28:20;;;;;;;8.60;7.40;;;;;;;19.27;44.38;98983.85;103010;1256;138118;-71
2024/04/24 09:30:51;;;;;;;12.90;8.50;;;;;;;19.58;43.70;98973.35;103087;1256;99163;-70
2024/04/24 09:33:18;;;;;;;11.00;7.90;;;;;;;19.89;42.67;98972.67;103047;1257;107653;-71
2024/04/24 09:35:46;;;;;;;10.40;8.00;;;;;;;19.92;41.29;98968.85;102782;1258;138226;-71
2024/04/24 09:38:14;;;;;;;10.70;7.00;;;;;;;19.57;41.22;98970.60;102971;1256;114093;-72
2024/04/24 09:40:40;;;;;;;13.00;7.60;;;;;;;19.12;41.04;98970.02;102944;1259;137973;-71
2024/04/24 09:43:08;;;;;;;10.20;6.90;;;;;;;18.71;41.58;98967.60;103006;1256;100647;-71
2024/04/24 09:45:35;;;;;;;24.60;8.50;;;;;;;18.38;41.74;98968.85;103124;1256;108466;-71
2024/04/24 09:48:03;;;;;;;24.60;8.70;;;;;;;17.97;41.63;98970.84;103173;1256;99151;-71
2024/04/24 09:50:34;;;;;;;11.20;8.20;;;;;;;17.56;42.24;98967.03;103169;1259;112822;-71
2024/04/24 09:53:02;;;;;;;10.20;8.40;;;;;;;17.15;42.34;98955.88;102945;1255;138333;-71
2024/04/24 09:55:38;;;;;;;9.40;8.50;;;;;;;16.80;42.54;98953.77;103153;1259;99357;-71
2024/04/24 09:58:08;;;;;;;9.40;7.70;;;;;;;16.39;42.99;98954.95;103083;1259;137831;-71
2024/04/24 10:00:36;;;;;;;9.00;7.90;;;;;;;16.07;43.58;98952.35;102976;1256;99038;-71
2024/04/24 10:03:10;;;;;;;10.30;9.10;;;;;;;15.80;44.12;98952.10;103154;1256;112489;-71
2024/04/24 10:05:39;;;;;;;10.40;8.00;;;;;;;15.53;44.39;98948.97;103023;1259;138082;-70
2024/04/24 10:08:29;;;;;;;8.90;8.10;;;;;;;15.17;44.58;98948.95;103107;1256;99152;-71
2024/04/24 10:10:58;;;;;;;11.00;9.40;;;;;;;14.88;45.05;98946.28;103098;1259;137888;-71
2024/04/24 10:13:30;;;;;;;12.20;9.00;;;;;;;14.66;45.49;98947.46;103121;1260;99241;-70
2024/04/24 10:16:01;;;;;;;11.50;9.40;;;;;;;14.44;45.75;98943.71;103166;1256;137974;-70
2024/04/24 10:18:29;;;;;;;15.80;12.40;;;;;;;14.15;46.04;98947.31;103166;1256;108343;-69
2024/04/24 10:20:57;;;;;;;11.10;9.40;;;;;;;13.96;46.72;98945.25;103115;1256;99046;-70
2024/04/24 10:23:27;;;;;;;9.80;8.80;;;;;;;13.79;46.96;98946.35;103022;1256;137837;-69
2024/04/24 10:25:56;;;;;;;11.30;9.20;;;;;;;13.53;47.04;98939.37;103185;1256;100333;-72
2024/04/24 10:28:24;;;;;;;13.70;9.40;;;;;;;13.31;47.51;98939.20;103109;1259;138419;-69
2024/04/24 10:30:53;;;;;;;13.00;9.00;;;;;;;13.19;48.08;98934.73;103094;1260;106975;-72
2024/04/24 10:33:20;;;;;;;12.10;8.70;;;;;;;13.08;48.19;98934.00;103214;1259;99243;-70
2024/04/24 10:35:48;;;;;;;12.20;8.80;;;;;;;13.03;48.67;98933.08;102934;1259;138879;-72
2024/04/24 10:38:16;;;;;;;10.60;9.10;;;;;;;13.06;49.08;98933.24;103026;1256;99152;-71
2024/04/24 10:40:49;;;;;;;9.90;8.90;;;;;;;13.09;48.98;98931.11;102846;1256;138279;-71
2024/04/24 10:43:17;;;;;;;11.70;9.10;;;;;;;13.10;49.08;98930.58;103013;1256;106660;-71
2024/04/24 10:45:44;;;;;;;11.20;9.20;;;;;;;13.12;49.14;98930.44;103036;1257;138726;-72
2024/04/24 10:48:12;;;;;;;10.10;8.90;;;;;;;13.08;49.19;98933.80;103138;1256;107000;-70
2024/04/24 10:50:41;;;;;;;11.50;8.30;;;;;;;13.08;49.33;98928.43;103169;1257;99781;-70
2024/04/24 10:53:13;;;;;;;10.00;8.30;;;;;;;13.08;49.49;98925.27;103023;1256;137847;-70
2024/04/24 10:55:50;;;;;;;9.70;8.60;;;;;;;13.15;49.72;98926.61;103151;1259;106772;-71
2024/04/24 10:58:22;;;;;;;13.30;9.30;;;;;;;13.23;49.61;98931.48;103388;1255;137969;-71
2024/04/24 11:00:49;;;;;;;11.20;8.50;;;;;;;13.22;49.50;98927.70;103168;1259;108546;-71
2024/04/24 11:03:17;;;;;;;10.00;8.60;;;;;;;13.18;49.59;98924.86;103167;1256;99168;-71
2024/04/24 11:05:44;;;;;;;9.90;8.90;;;;;;;13.11;49.65;98926.85;103340;1256;137934;-73
2024/04/24 11:08:18;;;;;;;9.20;8.30;;;;;;;13.09;50.10;98924.33;103097;1256;108599;-71
2024/04/24 11:10:51;;;;;;;9.10;7.30;;;;;;;13.11;49.99;98920.75;103057;1257;137827;-70
2024/04/24 11:13:18;;;;;;;10.00;8.60;;;;;;;13.01;50.03;98924.52;103208;1256;107589;-71
2024/04/24 11:15:45;;;;;;;11.40;8.60;;;;;;;12.92;50.20;98921.77;103107;1259;139302;-71
2024/04/24 11:18:27;;;;;;;9.70;7.80;;;;;;;12.86;50.29;98919.50;103187;1256;111518;-70
2024/04/24 11:20:54;;;;;;;8.90;7.90;;;;;;;12.75;50.51;98923.16;103090;1259;108117;-70